Time;durP1;ratioP1;P1;durP2;ratioP2;P2;SDS_P1;SDS_P2;PMS_P1;PMS_P2;Temp;Humidity;BMP_temperature;BMP_pressure;BME280_temperature;BME280_humidity;BME280_pressure;Samples;Min_cycle;Max_cycle;Signal;HPM_P1;HPM_P2
2022/05/11 00:01:31;;;;;;;3.30;2.60;;;24.30;47.10;25.50;100614.00;;;;5028032;28;20858;-56
2022/05/11 00:03:57;;;;;;;3.97;2.90;;;24.20;47.00;25.50;100617.00;;;;5027737;28;20559;-56
2022/05/11 00:06:25;;;;;;;2.80;2.60;;;24.20;47.00;25.50;100614.00;;;;5027881;28;20194;-56
2022/05/11 00:08:52;;;;;;;4.80;2.77;;;24.20;47.20;25.50;100602.00;;;;5027868;28;20843;-56
2022/05/11 00:11:18;;;;;;;2.80;2.60;;;24.20;47.40;25.50;100600.00;;;;5027986;28;20248;-56
2022/05/11 00:13:44;;;;;;;5.77;2.70;;;24.10;47.30;25.40;100601.00;;;;5027877;28;20768;-56
2022/05/11 00:16:10;;;;;;;3.13;2.83;;;24.10;47.50;25.40;100604.00;;;;5026206;28;20197;-56
2022/05/11 00:18:37;;;;;;;2.70;2.50;;;24.10;47.70;25.40;100595.00;;;;5027952;28;20221;-55
2022/05/11 00:21:03;;;;;;;2.90;2.70;;;24.10;47.50;25.40;100597.00;;;;5027935;28;20222;-56
2022/05/11 00:23:29;;;;;;;3.30;2.70;;;24.10;47.40;25.40;100606.00;;;;5027782;28;20692;-56
2022/05/11 00:25:55;;;;;;;3.33;2.97;;;24.10;47.50;25.40;100597.00;;;;5026570;28;20187;-56
2022/05/11 00:28:21;;;;;;;3.57;2.83;;;24.10;47.40;25.40;100598.00;;;;5027565;28;20259;-56
2022/05/11 00:30:47;;;;;;;3.07;2.70;;;24.10;47.60;25.40;100592.00;;;;5025965;28;20727;-54
2022/05/11 00:33:13;;;;;;;2.93;2.73;;;24.10;47.60;25.40;100577.00;;;;5027451;28;20167;-54
2022/05/11 00:35:39;;;;;;;4.37;2.80;;;24.00;48.30;25.30;100587.00;;;;5026456;28;20983;-54
2022/05/11 00:38:05;;;;;;;3.30;2.80;;;24.10;47.70;25.30;100590.00;;;;5026087;28;20167;-56
2022/05/11 00:40:31;;;;;;;3.03;2.70;;;24.00;47.50;25.30;100577.00;;;;5027513;28;20574;-56
2022/05/11 00:42:57;;;;;;;3.93;2.70;;;24.10;47.60;25.30;100573.00;;;;5026305;28;20749;-56
2022/05/11 00:45:23;;;;;;;2.90;2.60;;;24.00;47.60;25.30;100577.00;;;;5027552;28;20236;-56
2022/05/11 00:47:56;;;;;;;4.95;2.88;;;24.00;47.60;25.30;100518.00;;;;5026600;28;20761;-56
2022/05/11 00:50:30;;;;;;;3.17;2.80;;;24.00;47.60;25.30;100568.00;;;;5026019;28;20241;-55
2022/05/11 00:52:59;;;;;;;3.10;2.80;;;24.00;47.60;25.30;100518.00;;;;5025999;28;20175;-55
2022/05/11 00:55:31;;;;;;;3.10;2.60;;;24.00;47.60;25.20;100567.00;;;;5026032;28;20198;-55
2022/05/11 00:58:11;;;;;;;3.63;2.57;;;24.00;47.50;25.20;100563.00;;;;5025841;28;20171;-55
2022/05/11 01:00:37;;;;;;;3.53;2.87;;;24.00;47.60;25.20;100555.00;;;;5025894;28;20172;-55
2022/05/11 01:03:15;;;;;;;2.90;2.57;;;24.00;47.50;25.20;100552.00;;;;5025891;28;20209;-55
2022/05/11 01:05:41;;;;;;;4.07;2.97;;;23.90;47.40;25.20;100550.00;;;;5043542;28;20194;-55
2022/05/11 01:08:07;;;;;;;2.90;2.70;;;23.90;47.50;25.20;100557.00;;;;5044967;28;20175;-55
2022/05/11 01:10:33;;;;;;;2.70;2.50;;;24.00;47.50;25.20;100546.00;;;;5027729;28;20195;-55
2022/05/11 01:13:02;;;;;;;3.43;2.80;;;23.90;47.50;25.20;100543.00;;;;5026318;28;20186;-56
2022/05/11 01:15:29;;;;;;;3.10;2.60;;;24.00;47.60;25.10;100545.00;;;;5026401;28;20700;-55
2022/05/11 01:17:56;;;;;;;3.10;2.80;;;23.90;47.50;25.10;100535.00;;;;5025362;28;20181;-55
2022/05/11 01:20:22;;;;;;;3.47;2.87;;;23.90;47.50;25.10;100538.00;;;;5025682;28;20182;-55
2022/05/11 01:23:02;;;;;;;3.53;2.97;;;23.90;47.40;25.10;100542.00;;;;5025923;28;20210;-55
2022/05/11 01:25:28;;;;;;;3.63;2.63;;;23.90;47.50;25.10;100545.00;;;;5026364;28;20198;-56
2022/05/11 01:28:15;;;;;;;3.17;2.80;;;23.80;47.50;25.10;100540.00;;;;5025496;28;20263;-55
2022/05/11 01:30:49;;;;;;;3.37;2.90;;;23.90;47.50;25.10;100533.00;;;;5035492;28;20205;-55
2022/05/11 01:33:22;;;;;;;2.80;2.60;;;23.80;47.50;25.10;100536.00;;;;5034624;28;20159;-55
2022/05/11 01:36:21;;;;;;;2.93;2.63;;;23.90;47.70;25.00;100530.00;;;;5027961;28;20206;-55
2022/05/11 01:38:49;;;;;;;2.77;2.57;;;23.80;47.60;25.00;100522.00;;;;5009324;28;20519;-55
2022/05/11 01:41:38;;;;;;;3.30;3.00;;;23.80;47.70;25.00;100519.00;;;;5026336;28;20230;-55
2022/05/11 01:44:08;;;;;;;3.10;2.80;;;23.80;47.80;25.00;100509.00;;;;5011917;28;20671;-56
2022/05/11 01:46:34;;;;;;;3.03;2.70;;;23.80;47.80;25.00;100505.00;;;;5026510;28;20175;-55
2022/05/11 01:49:00;;;;;;;3.00;2.70;;;23.80;47.80;25.00;100505.00;;;;5026429;28;20197;-55
2022/05/11 01:51:26;;;;;;;3.37;2.67;;;23.80;47.80;25.00;100505.00;;;;5026823;28;20203;-55
2022/05/11 01:53:51;;;;;;;3.10;2.80;;;23.80;47.90;25.00;100497.00;;;;5026431;28;20170;-55
2022/05/11 01:56:20;;;;;;;3.37;2.63;;;23.80;47.90;25.00;100492.00;;;;5026782;28;20202;-55
2022/05/11 01:58:46;;;;;;;2.60;2.40;;;23.80;48.00;25.00;100498.00;;;;5025010;28;20167;-55
2022/05/11 02:01:13;;;;;;;3.50;2.60;;;23.80;47.90;24.90;100487.00;;;;5025393;28;20232;-55
2022/05/11 02:03:39;;;;;;;3.13;2.83;;;23.80;48.00;24.90;100499.00;;;;5025108;28;20195;-55
2022/05/11 02:08:48;;;;;;;3.07;2.77;;;23.70;47.90;24.90;100485.00;;;;5024765;28;20260;-56
2022/05/11 02:11:14;;;;;;;3.03;2.70;;;23.70;48.00;24.90;100482.00;;;;5026169;28;20610;-55
2022/05/11 02:13:40;;;;;;;2.70;2.50;;;23.70;48.00;24.90;100488.00;;;;5024856;28;20171;-56
2022/05/11 02:16:06;;;;;;;3.60;2.73;;;23.70;48.00;24.90;100477.00;;;;5026213;28;20194;-56
2022/05/11 02:18:32;;;;;;;2.97;2.70;;;23.70;48.00;24.90;100476.00;;;;5025895;28;20170;-56
2022/05/11 02:20:57;;;;;;;3.40;2.60;;;23.70;48.10;24.90;100481.00;;;;5026013;28;20556;-56
2022/05/11 02:23:23;;;;;;;3.30;2.77;;;23.70;48.20;24.90;100483.00;;;;5026147;28;20178;-55
2022/05/11 02:25:49;;;;;;;3.30;2.80;;;23.70;48.10;24.90;100473.00;;;;5037793;28;20186;-55
2022/05/11 02:28:16;;;;;;;3.50;2.80;;;23.60;48.20;24.80;100444.00;;;;5045573;28;20199;-55
2022/05/11 02:30:43;;;;;;;2.90;2.70;;;23.70;48.20;24.80;100473.00;;;;5028015;28;20679;-55
2022/05/11 02:33:09;;;;;;;3.13;2.80;;;23.70;48.20;24.80;100468.00;;;;5025808;28;20175;-55
2022/05/11 02:35:35;;;;;;;3.10;2.90;;;23.60;48.20;24.80;100419.00;;;;5025681;28;20233;-57
2022/05/11 02:38:04;;;;;;;3.33;3.03;;;23.60;48.30;24.80;100457.00;;;;5023980;28;20254;-55
2022/05/11 02:40:33;;;;;;;3.03;2.73;;;23.60;48.20;24.80;100455.00;;;;5024238;28;20581;-57
2022/05/11 02:43:01;;;;;;;3.23;2.93;;;23.60;48.30;24.80;100455.00;;;;5025751;28;20191;-55
2022/05/11 02:45:27;;;;;;;3.03;2.80;;;23.50;48.60;24.80;100458.00;;;;5026320;28;20206;-55
2022/05/11 02:47:53;;;;;;;2.90;2.70;;;23.50;48.70;24.80;100439.00;;;;5025647;28;20175;-55
2022/05/11 02:50:22;;;;;;;3.40;3.10;;;23.50;48.70;24.70;100444.00;;;;5024902;28;20199;-55
2022/05/11 02:52:48;;;;;;;3.03;2.77;;;23.50;48.70;24.70;100446.00;;;;5025349;28;20171;-56
2022/05/11 02:55:14;;;;;;;2.90;2.70;;;23.50;48.70;24.70;100444.00;;;;5029868;28;20205;-55
2022/05/11 02:57:40;;;;;;;3.30;3.00;;;23.50;48.70;24.70;100438.00;;;;5030043;28;20171;-55
2022/05/11 03:00:07;;;;;;;3.40;2.77;;;23.50;48.70;24.70;100425.00;;;;5030536;28;20167;-55
2022/05/11 03:02:33;;;;;;;3.17;2.83;;;23.40;48.90;24.70;100432.00;;;;5030835;28;20190;-56
2022/05/11 03:04:59;;;;;;;3.57;3.10;;;23.40;49.00;24.60;100430.00;;;;5029861;28;20210;-55
2022/05/11 03:07:25;;;;;;;3.90;3.10;;;23.40;48.90;24.60;100429.00;;;;5030415;28;20175;-56
2022/05/11 03:09:52;;;;;;;3.73;3.00;;;23.40;48.90;24.60;100425.00;;;;5029947;28;20163;-55
2022/05/11 03:12:18;;;;;;;4.10;3.10;;;23.40;49.10;24.60;100429.00;;;;5030031;28;20205;-56
2022/05/11 03:14:44;;;;;;;3.13;2.90;;;23.40;49.10;24.60;100430.00;;;;5030054;28;20617;-56
2022/05/11 03:17:10;;;;;;;3.53;3.10;;;23.40;49.10;24.60;100431.00;;;;5029989;28;20202;-55
2022/05/11 03:19:35;;;;;;;3.30;2.93;;;23.40;49.10;24.60;100420.00;;;;5030134;28;20171;-55
2022/05/11 03:22:01;;;;;;;3.47;3.17;;;23.40;49.20;24.50;100421.00;;;;5030190;28;20179;-55
2022/05/11 03:24:27;;;;;;;3.23;2.83;;;23.30;49.00;24.50;100419.00;;;;5030268;28;20225;-55
2022/05/11 03:26:53;;;;;;;4.17;3.03;;;23.30;49.00;24.50;100411.00;;;;5030237;28;20178;-55
2022/05/11 03:29:19;;;;;;;3.77;2.90;;;23.30;49.10;24.50;100417.00;;;;5030093;28;20633;-56
2022/05/11 03:34:36;;;;;;;4.20;3.20;;;23.30;49.30;24.50;100415.00;;;;5029010;28;20230;-56
2022/05/11 03:34:36;;;;;;;3.53;3.10;;;23.30;49.40;24.50;100382.00;;;;5029717;28;20203;-56
2022/05/11 03:37:11;;;;;;;5.10;3.23;;;23.20;49.30;24.50;100428.00;;;;5026738;28;20183;-56
2022/05/11 03:39:37;;;;;;;5.30;3.07;;;23.20;49.50;24.40;100412.00;;;;5019940;28;20848;-56
2022/05/11 03:42:05;;;;;;;4.07;3.00;;;23.30;49.40;24.40;100415.00;;;;5027528;28;20220;-55
2022/05/11 03:44:30;;;;;;;4.30;3.43;;;23.20;49.30;24.40;100413.00;;;;5029361;28;20202;-56
2022/05/11 03:46:56;;;;;;;4.50;4.10;;;23.20;49.40;24.40;100406.00;;;;5040222;28;20230;-60
2022/05/11 03:49:22;;;;;;;5.10;3.70;;;23.20;49.40;24.40;100402.00;;;;5048180;28;20197;-57
2022/05/11 03:51:49;;;;;;;4.87;4.47;;;23.20;49.50;24.40;100402.00;;;;5040925;28;20194;-55
2022/05/11 03:54:15;;;;;;;4.77;4.00;;;23.30;49.70;24.40;100397.00;;;;5028762;28;20174;-57
2022/05/11 03:56:40;;;;;;;4.83;4.00;;;23.30;49.50;24.40;100405.00;;;;5029262;28;20179;-54
2022/05/11 03:59:06;;;;;;;4.60;3.70;;;23.20;49.30;24.40;100396.00;;;;5027335;28;20200;-55
2022/05/11 04:01:32;;;;;;;4.07;3.70;;;23.20;49.30;24.40;100394.00;;;;5029018;28;20648;-56
2022/05/11 04:03:57;;;;;;;3.97;3.37;;;23.20;49.40;24.30;100391.00;;;;5028491;28;20187;-56
2022/05/11 04:06:23;;;;;;;3.87;3.47;;;23.20;49.40;24.30;100398.00;;;;5028450;28;20784;-54
2022/05/11 04:08:49;;;;;;;4.33;3.30;;;23.20;49.80;24.30;100380.00;;;;5028334;28;20182;-56
2022/05/11 04:11:15;;;;;;;3.77;3.47;;;23.10;49.50;24.30;100385.00;;;;5028294;28;20199;-57
2022/05/11 04:13:41;;;;;;;4.63;3.63;;;23.20;49.80;24.30;100389.00;;;;5028510;28;20198;-56
2022/05/11 04:16:07;;;;;;;3.63;3.37;;;23.20;49.80;24.30;100389.00;;;;5027623;28;20547;-54
2022/05/11 04:18:34;;;;;;;3.50;3.20;;;23.20;49.60;24.20;100389.00;;;;5030381;28;20211;-55
2022/05/11 04:20:59;;;;;;;4.13;3.73;;;23.20;49.60;24.20;100392.00;;;;5032286;28;20197;-57
2022/05/11 04:23:25;;;;;;;3.67;3.37;;;23.10;49.80;24.20;100325.00;;;;5050649;28;20179;-56
2022/05/11 04:25:51;;;;;;;5.37;3.47;;;23.10;50.10;24.20;100400.00;;;;5034547;28;20726;-56
2022/05/11 04:28:18;;;;;;;3.73;3.20;;;23.10;49.90;24.20;100398.00;;;;5028591;28;20186;-55
2022/05/11 04:30:43;;;;;;;3.60;3.30;;;23.10;49.80;24.20;100395.00;;;;5030341;28;20198;-56
2022/05/11 04:33:09;;;;;;;3.40;3.10;;;23.10;49.90;24.20;100398.00;;;;5029454;28;20686;-55
2022/05/11 04:35:36;;;;;;;4.73;3.40;;;23.10;50.10;24.10;100390.00;;;;5029473;28;20195;-57
2022/05/11 04:38:03;;;;;;;4.37;3.30;;;23.10;49.90;24.10;100393.00;;;;5028931;28;20215;-55
2022/05/11 04:40:29;;;;;;;3.77;3.30;;;23.10;50.00;24.10;100392.00;;;;5029425;28;20188;-55
2022/05/11 04:42:54;;;;;;;3.57;3.27;;;23.10;50.00;24.10;100398.00;;;;5027860;28;20348;-55
2022/05/11 04:45:20;;;;;;;3.60;3.30;;;23.10;50.00;24.10;100390.00;;;;5029397;28;20191;-56
2022/05/11 04:47:46;;;;;;;4.03;3.23;;;23.00;49.70;24.10;100316.00;;;;5028575;28;20167;-56
2022/05/11 04:50:14;;;;;;;3.70;3.40;;;23.00;49.80;24.10;100382.00;;;;5029667;28;20174;-57
2022/05/11 04:52:39;;;;;;;3.57;3.27;;;23.00;49.80;24.00;100374.00;;;;5012502;28;20198;-55
2022/05/11 04:55:07;;;;;;;4.00;3.60;;;23.00;50.30;24.00;100384.00;;;;5029640;28;20191;-57
2022/05/11 04:57:33;;;;;;;3.50;3.20;;;23.00;50.20;24.00;100374.00;;;;5027817;28;20164;-55
2022/05/11 04:59:58;;;;;;;3.63;3.27;;;23.00;50.00;24.00;100382.00;;;;5027092;28;20258;-57
2022/05/11 05:02:27;;;;;;;4.87;3.47;;;22.90;49.70;24.00;100380.00;;;;5028744;28;20659;-55
2022/05/11 05:04:58;;;;;;;4.10;3.40;;;22.90;49.90;24.00;100378.00;;;;5029075;28;20248;-56
2022/05/11 05:07:24;;;;;;;3.90;3.60;;;22.90;50.00;24.00;100375.00;;;;5028396;28;20156;-56
2022/05/11 05:09:50;;;;;;;3.93;3.53;;;22.90;50.00;24.00;100388.00;;;;5028765;28;20182;-56
2022/05/11 05:12:15;;;;;;;3.60;3.30;;;22.90;50.20;23.90;100372.00;;;;5028234;28;20201;-56
2022/05/11 05:14:42;;;;;;;3.70;3.40;;;22.90;50.10;23.90;100377.00;;;;5028041;28;20219;-56
2022/05/11 05:17:12;;;;;;;3.70;3.30;;;22.90;50.20;23.90;100381.00;;;;5027115;28;20171;-56
2022/05/11 05:19:42;;;;;;;5.50;3.50;;;22.90;50.30;23.90;100385.00;;;;5027891;28;20182;-56
2022/05/11 05:22:08;;;;;;;3.77;3.37;;;22.90;50.30;23.90;100378.00;;;;5028449;28;20225;-56
2022/05/11 05:24:34;;;;;;;4.10;3.40;;;22.90;50.20;23.80;100387.00;;;;5027341;28;20203;-56
2022/05/11 05:27:00;;;;;;;5.23;3.60;;;22.80;50.10;23.80;100388.00;;;;5027620;28;20171;-56
2022/05/11 05:32:10;;;;;;;3.43;3.10;;;22.80;50.10;23.80;100393.00;;;;5027963;28;20232;-56
2022/05/11 05:34:35;;;;;;;3.80;3.13;;;22.80;50.00;23.80;100383.00;;;;5027940;28;20190;-55
2022/05/11 05:37:01;;;;;;;4.87;3.40;;;22.80;50.00;23.80;100392.00;;;;5027430;28;20171;-55
2022/05/11 05:39:27;;;;;;;5.07;4.20;;;22.80;50.10;23.80;100386.00;;;;5028149;28;20170;-55
2022/05/11 05:41:53;;;;;;;4.57;4.00;;;22.80;50.60;23.80;100387.00;;;;5027649;28;20500;-55
2022/05/11 05:44:19;;;;;;;4.53;4.13;;;22.80;50.50;23.70;100388.00;;;;5027975;28;20187;-55
2022/05/11 05:46:45;;;;;;;5.17;4.67;;;22.80;50.70;23.80;100392.00;;;;5046427;28;20519;-57
2022/05/11 05:49:12;;;;;;;6.03;5.00;;;22.80;50.90;23.80;100386.00;;;;5039849;28;20186;-59
2022/05/11 05:51:39;;;;;;;5.53;5.03;;;22.70;51.00;23.80;100389.00;;;;5026867;28;20210;-56
2022/05/11 05:54:06;;;;;;;7.20;5.33;;;22.70;51.40;23.80;100383.00;;;;5025984;28;20843;-57
2022/05/11 05:56:32;;;;;;;6.00;5.40;;;22.60;51.60;23.80;100392.00;;;;5027384;28;20191;-55
2022/05/11 05:59:03;;;;;;;7.30;6.00;;;22.50;51.80;23.80;100383.00;;;;5027090;28;20199;-56
2022/05/11 06:01:28;;;;;;;5.60;5.10;;;22.50;52.30;23.70;100367.00;;;;5027065;28;20218;-54
2022/05/11 06:03:54;;;;;;;5.90;5.40;;;22.60;51.90;23.70;100387.00;;;;5027370;28;20274;-56
2022/05/11 06:06:21;;;;;;;7.80;5.77;;;22.50;52.20;23.70;100394.00;;;;5027062;28;20210;-55
2022/05/11 06:08:47;;;;;;;8.53;5.73;;;22.50;52.30;23.70;100393.00;;;;5027113;28;20187;-56
2022/05/11 06:11:12;;;;;;;8.00;6.10;;;22.50;52.30;23.70;100387.00;;;;5027415;28;20249;-55
2022/05/11 06:13:38;;;;;;;8.53;6.07;;;22.40;52.60;23.70;100399.00;;;;5026435;28;20171;-56
2022/05/11 06:16:10;;;;;;;6.77;6.10;;;22.40;52.80;23.60;100392.00;;;;5026282;28;20273;-55
2022/05/11 06:18:36;;;;;;;8.43;6.10;;;22.30;52.90;23.60;100377.00;;;;5026345;28;20579;-56
2022/05/11 06:21:03;;;;;;;7.50;6.00;;;22.40;53.10;23.60;100393.00;;;;5026490;28;20202;-56
2022/05/11 06:23:28;;;;;;;8.07;5.60;;;22.40;53.20;23.60;100396.00;;;;5026130;28;20235;-55
2022/05/11 06:25:54;;;;;;;7.77;5.73;;;22.40;53.10;23.60;100388.00;;;;5026488;28;20206;-55
2022/05/11 06:28:20;;;;;;;8.53;6.30;;;22.40;53.10;23.50;100392.00;;;;5027486;28;20174;-55
2022/05/11 06:30:47;;;;;;;7.03;6.33;;;22.40;53.10;23.50;100388.00;;;;5030629;28;20705;-55
2022/05/11 06:33:13;;;;;;;7.33;6.63;;;22.40;53.40;23.50;100388.00;;;;5030297;28;20582;-55
2022/05/11 06:35:38;;;;;;;7.67;6.37;;;22.40;53.70;23.50;100382.00;;;;5030584;28;20190;-56
2022/05/11 06:38:05;;;;;;;7.37;6.60;;;22.30;53.60;23.50;100388.00;;;;5029571;28;20171;-56
2022/05/11 06:40:31;;;;;;;8.37;6.47;;;22.40;53.60;23.50;100386.00;;;;5030327;28;20189;-55
2022/05/11 06:42:57;;;;;;;8.00;5.90;;;22.40;53.60;23.50;100394.00;;;;5030090;28;20174;-54
2022/05/11 06:45:25;;;;;;;7.80;6.70;;;22.40;53.40;23.50;100393.00;;;;5030415;28;20209;-56
2022/05/11 06:47:53;;;;;;;8.97;5.87;;;22.40;53.90;23.50;100387.00;;;;5029639;28;20257;-55
2022/05/11 06:50:19;;;;;;;6.33;5.70;;;22.40;53.80;23.50;100394.00;;;;5030171;28;20186;-54
2022/05/11 06:52:44;;;;;;;8.07;6.50;;;22.40;53.60;23.50;100386.00;;;;5028922;28;20178;-55
2022/05/11 07:00:55;;;;;;;6.93;6.23;;;22.40;53.60;23.40;100390.00;;;;5029886;28;20201;-55
2022/05/11 07:03:21;;;;;;;7.67;6.13;;;22.20;53.20;23.40;100366.00;;;;5029714;28;20618;-55
2022/05/11 07:05:47;;;;;;;8.90;5.40;;;22.10;53.10;23.40;100389.00;;;;5028472;28;20198;-55
2022/05/11 07:08:13;;;;;;;7.97;5.77;;;22.20;53.00;23.40;100383.00;;;;5029560;28;20179;-55
2022/05/11 07:10:42;;;;;;;7.50;5.57;;;22.20;52.80;23.30;100390.00;;;;5045339;28;20226;-56
2022/05/11 07:13:07;;;;;;;6.50;5.73;;;22.20;52.50;23.30;100395.00;;;;5050625;28;20179;-55
2022/05/11 07:15:34;;;;;;;7.93;5.60;;;22.10;52.30;23.30;100393.00;;;;5045771;28;20203;-56
2022/05/11 07:18:01;;;;;;;6.80;5.80;;;22.10;52.40;23.30;100396.00;;;;5040713;28;20242;-56
2022/05/11 07:20:35;;;;;;;6.90;5.30;;;22.10;52.40;23.30;100394.00;;;;5029180;28;20767;-55
2022/05/11 07:23:02;;;;;;;12.87;5.90;;;22.10;52.50;23.20;100404.00;;;;5027821;28;20632;-54
2022/05/11 07:25:28;;;;;;;8.90;5.43;;;22.10;52.50;23.30;100403.00;;;;5028221;28;20266;-55
2022/05/11 07:27:54;;;;;;;5.60;4.90;;;22.00;52.00;23.20;100391.00;;;;5027283;28;20189;-55
2022/05/11 07:30:26;;;;;;;7.27;4.53;;;22.10;51.90;23.20;100390.00;;;;5026125;28;20179;-56
2022/05/11 07:32:52;;;;;;;7.33;5.10;;;22.10;51.70;23.20;100397.00;;;;5028526;28;20282;-56
2022/05/11 07:35:18;;;;;;;7.10;4.50;;;22.10;51.70;23.20;100396.00;;;;5028223;28;20191;-55
2022/05/11 07:37:47;;;;;;;6.67;4.90;;;22.10;51.70;23.20;100396.00;;;;5024395;28;20172;-56
2022/05/11 07:40:13;;;;;;;6.70;5.20;;;22.00;51.80;23.20;100401.00;;;;4957604;28;20236;-55
2022/05/11 07:42:39;;;;;;;8.37;4.47;;;22.00;51.90;23.20;100395.00;;;;5027944;28;20163;-56
2022/05/11 07:45:05;;;;;;;5.87;4.60;;;22.00;51.90;23.20;100387.00;;;;5027845;28;20198;-56
2022/05/11 07:47:32;;;;;;;6.67;4.90;;;22.00;51.90;23.20;100397.00;;;;5027712;28;20714;-55
2022/05/11 07:49:58;;;;;;;6.43;4.60;;;22.10;51.90;23.20;100387.00;;;;5027458;28;20167;-55
2022/05/11 07:52:24;;;;;;;5.67;4.40;;;22.10;52.20;23.20;100385.00;;;;5027922;28;20610;-55
2022/05/11 07:54:49;;;;;;;5.23;4.37;;;22.10;51.90;23.10;100382.00;;;;5027869;28;20244;-55
2022/05/11 07:59:59;;;;;;;4.90;4.07;;;22.20;52.00;23.20;100388.00;;;;5027229;28;20313;-55
2022/05/11 08:02:33;;;;;;;4.47;4.03;;;22.20;51.90;23.20;100382.00;;;;5027490;28;20743;-55
2022/05/11 08:05:01;;;;;;;4.33;3.93;;;22.20;51.90;23.20;100374.00;;;;5027765;28;20222;-56
2022/05/11 08:07:34;;;;;;;7.10;4.10;;;22.20;52.00;23.20;100380.00;;;;5027025;28;20301;-54
2022/05/11 08:10:00;;;;;;;4.63;3.90;;;22.10;51.90;23.20;100379.00;;;;5026390;28;20778;-55
2022/05/11 08:12:26;;;;;;;4.30;3.70;;;22.10;51.90;23.20;100384.00;;;;5026888;28;20281;-55
2022/05/11 08:14:53;;;;;;;6.57;3.80;;;22.20;52.00;23.10;100382.00;;;;5027670;28;20607;-54
2022/05/11 08:17:30;;;;;;;5.93;3.77;;;22.10;51.90;23.10;100378.00;;;;5032870;28;20167;-55
2022/05/11 08:19:56;;;;;;;5.53;3.67;;;22.10;51.70;23.10;100374.00;;;;5030617;28;20258;-55
2022/05/11 08:22:22;;;;;;;5.17;3.40;;;22.10;51.50;23.10;100375.00;;;;5033286;28;20648;-55
2022/05/11 08:24:49;;;;;;;6.43;3.50;;;22.20;51.70;23.10;100385.00;;;;5033260;28;20194;-53
2022/05/11 08:27:24;;;;;;;4.30;3.67;;;22.10;51.60;23.10;100390.00;;;;5032685;28;20182;-54
2022/05/11 08:35:18;;;;;;;5.90;3.70;;;22.10;51.70;23.10;100389.00;;;;5033205;28;20366;-54
2022/05/11 08:37:44;;;;;;;3.90;3.60;;;22.10;51.70;23.10;100379.00;;;;5032592;28;20178;-53
2022/05/11 08:40:43;;;;;;;6.20;3.70;;;22.10;51.90;23.10;100390.00;;;;4978568;28;20166;-53
2022/05/11 08:43:14;;;;;;;6.27;4.13;;;22.10;51.90;23.10;100378.00;;;;5036299;28;20218;-55
2022/05/11 08:46:11;;;;;;;4.87;3.60;;;22.10;51.60;23.10;100374.00;;;;5053537;28;20225;-53
2022/05/11 08:48:54;;;;;;;5.27;3.77;;;22.10;51.90;23.00;100379.00;;;;5042662;28;20198;-55
2022/05/11 08:51:32;;;;;;;4.03;3.73;;;22.00;51.80;23.10;100392.00;;;;5037355;28;20262;-55
2022/05/11 08:54:18;;;;;;;5.90;3.80;;;22.00;51.90;23.10;100390.00;;;;5020338;28;20178;-53
2022/05/11 08:56:44;;;;;;;4.60;3.87;;;22.10;51.90;23.10;100392.00;;;;5027756;28;20205;-53
2022/05/11 08:59:21;;;;;;;4.50;3.40;;;22.10;51.90;23.10;100377.00;;;;5033505;28;20155;-54
2022/05/11 09:02:21;;;;;;;7.70;4.03;;;22.10;51.70;23.10;100391.00;;;;5037805;28;20181;-54
2022/05/11 09:04:49;;;;;;;5.53;3.80;;;22.10;51.90;23.00;100380.00;;;;5032187;28;20211;-54
2022/05/11 09:07:14;;;;;;;3.80;3.50;;;22.10;51.90;23.00;100386.00;;;;5031074;28;20237;-54
2022/05/11 09:09:40;;;;;;;5.33;3.47;;;22.10;51.80;23.10;100382.00;;;;5032789;28;20182;-53
2022/05/11 09:12:07;;;;;;;4.47;3.27;;;22.10;51.90;23.10;100357.00;;;;5033691;28;20195;-54
2022/05/11 09:14:57;;;;;;;7.00;3.73;;;22.10;51.90;23.10;100389.00;;;;5029859;28;20182;-53
2022/05/11 09:17:35;;;;;;;7.57;3.53;;;22.10;52.10;23.10;100370.00;;;;5025322;28;20159;-53
2022/05/11 09:20:11;;;;;;;4.67;3.13;;;22.10;51.90;23.10;100365.00;;;;5028214;28;20155;-54
2022/05/11 09:22:54;;;;;;;3.80;3.20;;;22.10;51.90;23.10;100365.00;;;;5028160;28;20612;-54
2022/05/11 09:25:25;;;;;;;3.47;3.17;;;22.10;51.90;23.10;100359.00;;;;5028261;28;20668;-53
2022/05/11 09:27:51;;;;;;;3.77;3.47;;;22.10;51.70;23.10;100363.00;;;;5026277;28;20647;-53
2022/05/11 09:30:23;;;;;;;6.20;3.50;;;22.10;51.90;23.10;100338.00;;;;5026114;28;20808;-54
2022/05/11 09:32:53;;;;;;;5.20;3.50;;;22.10;51.90;23.10;100364.00;;;;5027634;28;20167;-54
2022/05/11 09:35:37;;;;;;;4.60;3.50;;;22.20;52.00;23.20;100354.00;;;;5028435;28;20205;-55
2022/05/11 09:38:18;;;;;;;5.17;3.40;;;22.20;52.00;23.20;100357.00;;;;4930880;28;20178;-55
2022/05/11 09:41:05;;;;;;;4.73;3.40;;;22.20;52.00;23.20;100361.00;;;;5026302;28;20158;-54
2022/05/11 09:43:40;;;;;;;5.30;3.50;;;22.20;52.00;23.20;100346.00;;;;5028291;28;20159;-54
2022/05/11 09:46:26;;;;;;;4.80;3.50;;;22.20;52.00;23.20;100346.00;;;;5011327;28;20198;-54
2022/05/11 09:49:11;;;;;;;5.77;4.10;;;22.20;52.00;23.20;100348.00;;;;5026778;28;20278;-54
2022/05/11 09:51:44;;;;;;;3.87;3.57;;;22.20;52.00;23.30;100348.00;;;;5028774;28;20206;-54
2022/05/11 09:54:38;;;;;;;3.90;3.50;;;22.30;52.10;23.30;100342.00;;;;5028742;28;20206;-55
2022/05/11 09:57:09;;;;;;;4.80;3.63;;;22.30;52.00;23.30;100346.00;;;;5028044;28;20170;-54
2022/05/11 09:59:37;;;;;;;5.37;4.00;;;22.30;52.10;23.30;100344.00;;;;5028913;28;20167;-55
2022/05/11 10:02:32;;;;;;;7.13;3.83;;;22.30;52.10;23.30;100335.00;;;;5010071;28;20250;-54
2022/05/11 10:05:14;;;;;;;7.63;4.10;;;22.30;52.10;23.30;100322.00;;;;5027568;28;20202;-53
2022/05/11 10:07:45;;;;;;;5.43;3.70;;;22.40;52.20;23.40;100325.00;;;;5024197;28;20175;-52
2022/05/11 10:10:37;;;;;;;5.10;3.47;;;22.40;52.60;23.40;100331.00;;;;5007779;28;20151;-51
2022/05/11 10:13:52;;;;;;;4.67;3.33;;;22.50;52.90;23.40;100335.00;;;;5014632;28;20194;-52
2022/05/11 10:22:32;;;;;;;14.90;6.33;;;22.70;53.50;23.50;100319.00;;;;5023902;28;20175;-51
2022/05/11 10:25:22;;;;;;;12.00;6.13;;;22.70;53.70;23.60;100314.00;;;;5024531;28;20664;-51
2022/05/11 10:27:56;;;;;;;11.90;6.03;;;22.80;53.90;23.60;100309.00;;;;5009356;28;20163;-51
2022/05/11 10:30:25;;;;;;;10.43;5.80;;;22.80;53.90;23.60;100317.00;;;;5024537;28;20174;-51
2022/05/11 10:33:59;;;;;;;12.00;5.40;;;22.80;54.10;23.70;100306.00;;;;5024333;28;20659;-51
2022/05/11 10:36:57;;;;;;;11.10;5.30;;;22.90;54.10;23.70;100300.00;;;;5010775;28;20280;-51
2022/05/11 10:39:35;;;;;;;9.97;5.27;;;22.90;54.20;23.70;100296.00;;;;4839138;28;20247;-51
2022/05/11 10:42:40;;;;;;;9.17;5.17;;;23.00;54.40;23.80;100308.00;;;;5044694;28;20363;-52
2022/05/11 10:45:23;;;;;;;7.80;4.63;;;23.00;54.40;23.80;100298.00;;;;5033624;28;20182;-51
2022/05/11 10:48:14;;;;;;;9.67;5.07;;;23.00;54.50;23.80;100288.00;;;;5030777;28;20336;-52
2022/05/11 10:51:03;;;;;;;7.63;4.80;;;23.00;54.60;23.80;100282.00;;;;5029574;28;20619;-51
2022/05/11 10:53:34;;;;;;;8.40;5.20;;;23.00;54.60;23.90;100286.00;;;;5043521;28;20162;-51
2022/05/11 10:56:44;;;;;;;9.13;5.03;;;23.00;54.60;23.90;100294.00;;;;5044964;28;20671;-50
2022/05/11 10:59:32;;;;;;;5.80;3.93;;;23.10;54.80;23.90;100294.00;;;;5050112;28;20707;-51
2022/05/11 11:02:35;;;;;;;6.17;4.30;;;23.10;54.80;23.90;100288.00;;;;5036467;28;20667;-52
2022/05/11 11:05:08;;;;;;;7.27;4.87;;;23.10;54.70;24.00;100281.00;;;;5044224;28;20316;-51
2022/05/11 11:07:39;;;;;;;5.57;4.00;;;23.20;55.00;24.00;100278.00;;;;5043436;28;20523;-52
2022/05/11 11:10:31;;;;;;;7.73;4.47;;;23.20;54.90;24.00;100283.00;;;;5014321;28;20167;-52
2022/05/11 11:13:27;;;;;;;7.60;4.30;;;23.20;54.90;24.00;100269.00;;;;5025112;28;20164;-51
2022/05/11 11:15:52;;;;;;;7.20;4.10;;;23.20;54.80;24.00;100263.00;;;;5026621;28;20198;-52
2022/05/11 11:18:30;;;;;;;5.10;4.00;;;23.20;54.90;24.10;100258.00;;;;5028527;28;20175;-51
2022/05/11 11:21:01;;;;;;;5.13;3.87;;;23.30;55.10;23.90;100256.00;;;;5013212;28;20151;-51
2022/05/11 11:23:35;;;;;;;4.87;3.77;;;23.30;55.10;24.10;100258.00;;;;5027934;28;20198;-50
2022/05/11 11:26:12;;;;;;;5.20;3.60;;;23.30;54.90;24.20;100252.00;;;;5028570;28;20281;-52
2022/05/11 11:29:00;;;;;;;4.70;3.80;;;23.30;54.90;24.20;100252.00;;;;5028733;28;20155;-53